createdAt,value
2022-12-08T00:00:24.373Z,4.20
2022-12-08T00:02:53.271Z,4.22
2022-12-08T00:05:40.091Z,4.10
2022-12-08T00:08:29.329Z,4.22
2022-12-08T00:10:59.535Z,4.97
2022-12-08T00:13:28.426Z,5.22
2022-12-08T00:16:02.258Z,5.43
2022-12-08T00:18:31.034Z,4.63
2022-12-08T00:21:01.777Z,4.43
2022-12-08T00:23:31.458Z,4.35
2022-12-08T00:26:05.749Z,4.88
2022-12-08T00:28:36.598Z,4.55
2022-12-08T00:31:10.363Z,5.07
2022-12-08T00:33:40.036Z,4.75
2022-12-08T00:36:09.989Z,4.85
2022-12-08T00:38:39.851Z,5.63
2022-12-08T00:41:15.299Z,4.75
2022-12-08T00:43:44.692Z,5.43
2022-12-08T00:46:13.871Z,5.88
2022-12-08T00:48:42.889Z,5.70
2022-12-08T00:51:11.973Z,4.75
2022-12-08T00:53:41.073Z,6.60
2022-12-08T00:56:11.684Z,6.05
2022-12-08T00:58:40.835Z,5.15
2022-12-08T01:01:12.593Z,5.68
2022-12-08T01:03:41.806Z,5.88
2022-12-08T01:06:11.367Z,5.57
2022-12-08T01:08:41.430Z,5.35
2022-12-08T01:11:14.278Z,6.63
2022-12-08T01:13:43.958Z,5.30
2022-12-08T01:16:21.798Z,4.93
2022-12-08T01:18:51.539Z,6.57
2022-12-08T01:21:20.940Z,5.25
2022-12-08T01:23:50.145Z,6.10
2022-12-08T01:26:21.493Z,6.68
2022-12-08T01:28:50.876Z,4.68
2022-12-08T01:31:22.440Z,7.45
2022-12-08T01:33:51.979Z,6.90
2022-12-08T01:36:23.767Z,6.05
2022-12-08T01:38:53.685Z,5.57
2022-12-08T01:41:27.077Z,5.13
2022-12-08T01:44:01.430Z,7.72
2022-12-08T01:46:32.485Z,6.50
2022-12-08T01:49:07.037Z,5.82
2022-12-08T01:51:43.024Z,6.72
2022-12-08T01:54:13.863Z,5.90
2022-12-08T01:56:50.021Z,5.20
2022-12-08T01:59:20.460Z,4.85
2022-12-08T02:01:53.475Z,5.53
2022-12-08T02:04:22.646Z,5.25
2022-12-08T02:06:52.932Z,5.47
2022-12-08T02:09:22.675Z,5.32
2022-12-08T02:11:57.614Z,7.22
2022-12-08T02:14:27.283Z,4.50
2022-12-08T02:17:04.553Z,4.97
2022-12-08T02:20:14.769Z,6.93
2022-12-08T02:22:51.130Z,4.90
2022-12-08T02:25:28.857Z,5.72
2022-12-08T02:28:09.623Z,4.55
2022-12-08T02:30:48.699Z,4.50
2022-12-08T02:34:04.782Z,7.20
2022-12-08T02:36:41.145Z,5.05
2022-12-08T02:39:21.772Z,4.88
2022-12-08T02:41:58.673Z,5.63
2022-12-08T02:44:34.705Z,5.18
2022-12-08T02:47:09.947Z,4.40
2022-12-08T02:49:40.382Z,4.47
2022-12-08T02:52:25.754Z,6.60
2022-12-08T02:54:58.217Z,4.55
2022-12-08T02:57:37.766Z,4.93
2022-12-08T03:00:11.261Z,3.92
2022-12-08T03:02:49.658Z,3.90
2022-12-08T03:05:43.038Z,4.95
2022-12-08T03:08:17.985Z,3.97
2022-12-08T03:10:51.048Z,4.50
2022-12-08T03:13:24.857Z,4.15
2022-12-08T03:15:56.925Z,5.45
2022-12-08T03:18:30.006Z,4.00
2022-12-08T03:21:01.519Z,4.47
2022-12-08T03:23:31.499Z,3.22
2022-12-08T03:26:12.563Z,3.47
2022-12-08T03:28:41.832Z,3.65
2022-12-08T03:31:15.695Z,3.88
2022-12-08T03:33:49.827Z,4.03
2022-12-08T03:36:20.777Z,2.92
2022-12-08T03:38:53.991Z,3.78
2022-12-08T03:41:23.824Z,4.30
2022-12-08T03:43:54.279Z,5.30
2022-12-08T03:48:53.098Z,4.03
2022-12-08T03:51:29.559Z,3.42
2022-12-08T03:58:17.463Z,3.65
2022-12-08T04:00:46.791Z,3.97
2022-12-08T04:03:16.009Z,4.63
2022-12-08T04:05:45.080Z,3.83
2022-12-08T04:08:15.621Z,3.78
2022-12-08T04:10:44.769Z,4.72
2022-12-08T04:13:13.910Z,4.70
2022-12-08T04:15:47.593Z,3.88
2022-12-08T04:18:36.711Z,5.93
2022-12-08T04:21:06.067Z,5.35
2022-12-08T04:23:36.537Z,5.70
2022-12-08T04:26:05.851Z,5.47
2022-12-08T04:28:35.270Z,5.85
2022-12-08T04:31:04.747Z,4.82
2022-12-08T04:33:36.521Z,5.03
2022-12-08T04:36:07.345Z,5.00
2022-12-08T04:38:38.472Z,6.45
2022-12-08T04:41:08.428Z,5.60
2022-12-08T04:43:38.180Z,5.78
2022-12-08T04:46:09.416Z,5.20
2022-12-08T04:48:40.676Z,6.55
2022-12-08T04:51:15.962Z,5.10
2022-12-08T04:53:47.161Z,5.88
2022-12-08T04:56:17.635Z,4.95
2022-12-08T04:58:49.971Z,6.43
2022-12-08T05:01:18.991Z,6.38
2022-12-08T05:03:48.075Z,6.30
2022-12-08T05:06:17.770Z,5.88
2022-12-08T05:08:48.188Z,5.57
2022-12-08T05:11:17.243Z,6.25
2022-12-08T05:13:46.457Z,5.93
2022-12-08T05:16:17.271Z,6.65
2022-12-08T05:18:46.527Z,5.32
2022-12-08T05:21:15.565Z,7.85
2022-12-08T05:23:44.567Z,6.80
2022-12-08T05:26:15.033Z,7.78
2022-12-08T05:28:44.957Z,7.30
2022-12-08T05:31:15.012Z,6.53
2022-12-08T05:33:44.938Z,7.22
2022-12-08T05:36:15.591Z,5.90
2022-12-08T05:38:45.584Z,6.57
2022-12-08T05:41:19.098Z,8.30
2022-12-08T05:43:50.279Z,8.98
2022-12-08T05:46:19.589Z,7.28
2022-12-08T05:48:48.728Z,9.40
2022-12-08T05:51:21.406Z,8.10
2022-12-08T05:53:51.325Z,11.55
2022-12-08T05:56:22.663Z,7.72
2022-12-08T05:58:52.373Z,9.02
2022-12-08T06:01:23.729Z,9.70
2022-12-08T06:03:52.941Z,8.13
2022-12-08T06:06:22.439Z,8.90
2022-12-08T06:08:52.126Z,9.30
2022-12-08T06:11:24.499Z,8.27
2022-12-08T06:13:54.668Z,8.68
2022-12-08T06:16:24.459Z,8.80
2022-12-08T06:18:53.765Z,10.10
2022-12-08T06:21:23.149Z,9.63
2022-12-08T06:23:55.273Z,9.30
2022-12-08T06:26:26.001Z,9.00
2022-12-08T06:28:55.149Z,8.15
2022-12-08T06:31:26.607Z,8.68
2022-12-08T06:33:56.560Z,11.45
2022-12-08T06:36:27.121Z,10.48
2022-12-08T06:38:56.507Z,7.32
2022-12-08T06:41:27.542Z,9.70
2022-12-08T06:43:58.383Z,10.15
2022-12-08T06:46:27.663Z,10.60
2022-12-08T06:48:56.806Z,10.50
2022-12-08T06:51:25.998Z,9.82
2022-12-08T06:53:55.035Z,9.38
2022-12-08T06:56:28.151Z,6.45
2022-12-08T06:58:57.290Z,8.60
2022-12-08T07:01:26.426Z,11.18
2022-12-08T07:03:55.582Z,8.23
2022-12-08T07:06:26.040Z,9.38
2022-12-08T07:08:55.452Z,9.57
2022-12-08T07:11:26.020Z,8.07
2022-12-08T07:13:57.040Z,10.77
2022-12-08T07:16:26.561Z,8.52
2022-12-08T07:18:55.778Z,9.93
2022-12-08T07:21:24.857Z,8.85
2022-12-08T07:23:57.609Z,9.40
2022-12-08T07:26:28.574Z,11.88
2022-12-08T07:28:57.593Z,9.80
2022-12-08T07:31:28.698Z,10.48
2022-12-08T07:33:59.043Z,9.55
2022-12-08T07:36:28.184Z,10.35
2022-12-08T07:38:57.187Z,9.45
2022-12-08T07:41:28.822Z,10.40
2022-12-08T07:43:58.276Z,10.88
2022-12-08T07:46:28.239Z,10.05
2022-12-08T07:48:57.728Z,11.23
2022-12-08T07:51:26.774Z,9.68
2022-12-08T07:53:56.202Z,11.27
2022-12-08T07:56:25.507Z,9.18
2022-12-08T07:58:56.117Z,8.60
2022-12-08T08:01:27.336Z,8.88
2022-12-08T08:04:01.430Z,11.80
2022-12-08T08:06:31.015Z,10.68
2022-12-08T08:09:00.583Z,10.23
2022-12-08T08:11:29.687Z,9.52
2022-12-08T08:14:00.217Z,7.70
2022-12-08T08:16:34.928Z,8.13
2022-12-08T08:19:05.710Z,10.43
2022-12-08T08:21:45.426Z,9.85
2022-12-08T08:24:15.314Z,10.43
2022-12-08T08:26:44.870Z,8.15
2022-12-08T08:29:15.316Z,8.60
2022-12-08T08:31:44.489Z,9.18
2022-12-08T08:34:13.536Z,7.72
2022-12-08T08:36:42.703Z,8.25
2022-12-08T08:39:12.684Z,8.80
2022-12-08T08:41:41.775Z,9.18
2022-12-08T08:44:10.811Z,6.85
2022-12-08T08:46:41.445Z,8.38
2022-12-08T08:49:10.625Z,7.80
2022-12-08T08:51:39.636Z,9.95
2022-12-08T08:54:08.876Z,8.02
2022-12-08T08:56:37.974Z,8.98
2022-12-08T08:59:07.088Z,9.63
2022-12-08T09:01:36.645Z,8.70
2022-12-08T09:04:07.390Z,7.35
2022-12-08T09:06:36.586Z,9.57
2022-12-08T09:09:06.022Z,9.27
2022-12-08T09:11:35.357Z,7.93
2022-12-08T09:14:04.908Z,8.93
2022-12-08T09:16:40.377Z,9.82
2022-12-08T09:19:12.830Z,8.57
2022-12-08T09:21:42.316Z,8.98
2022-12-08T09:24:15.937Z,8.70
2022-12-08T09:26:47.033Z,8.75
2022-12-08T09:29:17.817Z,10.77
2022-12-08T09:31:47.772Z,8.27
2022-12-08T09:34:18.644Z,7.60
2022-12-08T09:36:47.802Z,9.30
2022-12-08T09:39:17.180Z,9.82
2022-12-08T09:41:50.977Z,9.00
2022-12-08T09:44:54.930Z,9.32
2022-12-08T09:47:35.352Z,9.40
2022-12-08T09:50:13.670Z,8.65
2022-12-08T09:52:47.260Z,9.65
2022-12-08T09:55:24.768Z,9.57
2022-12-08T09:58:01.784Z,8.52
2022-12-08T10:00:31.150Z,9.45
2022-12-08T10:03:16.632Z,8.98
2022-12-08T10:06:11.279Z,9.27
2022-12-08T10:08:47.854Z,8.73
2022-12-08T10:11:24.783Z,9.60
2022-12-08T10:14:06.968Z,8.77
2022-12-08T10:16:40.646Z,8.55
2022-12-08T10:19:18.750Z,7.88
2022-12-08T10:21:49.852Z,8.70
2022-12-08T10:24:27.627Z,9.63
2022-12-08T10:27:03.429Z,7.90
2022-12-08T10:29:33.074Z,7.97
2022-12-08T10:32:03.329Z,8.95
2022-12-08T10:34:35.765Z,8.25
2022-12-08T10:37:11.751Z,7.95
2022-12-08T10:39:44.091Z,8.35
2022-12-08T10:42:22.440Z,6.43
2022-12-08T10:45:04.623Z,6.88
2022-12-08T10:47:42.486Z,6.95
2022-12-08T10:50:22.755Z,6.97
2022-12-08T10:53:00.601Z,8.38
2022-12-08T10:55:40.557Z,7.32
2022-12-08T10:58:30.342Z,8.43
2022-12-08T11:01:03.821Z,7.75
2022-12-08T11:03:36.824Z,8.82
2022-12-08T11:06:17.194Z,7.70
2022-12-08T11:08:57.225Z,7.82
2022-12-08T11:11:45.978Z,7.45
2022-12-08T11:14:21.194Z,7.05
2022-12-08T11:16:53.363Z,7.22
2022-12-08T11:19:27.854Z,5.35
2022-12-08T11:21:57.226Z,6.88
2022-12-08T11:24:33.504Z,6.28
2022-12-08T11:27:11.294Z,5.32
2022-12-08T11:29:40.853Z,5.25
2022-12-08T11:32:15.139Z,6.60
2022-12-08T11:34:49.276Z,6.63
2022-12-08T11:37:31.360Z,5.60
2022-12-08T11:40:09.423Z,6.63
2022-12-08T11:42:51.528Z,5.95
2022-12-08T11:45:26.031Z,6.40
2022-12-08T11:48:05.189Z,7.15
2022-12-08T11:50:43.736Z,7.07
2022-12-08T11:53:22.221Z,6.28
2022-12-08T11:55:56.822Z,4.50
2022-12-08T11:58:35.565Z,7.53
2022-12-08T12:01:04.710Z,7.65
2022-12-08T12:03:40.725Z,8.13
2022-12-08T12:06:53.042Z,7.25
2022-12-08T12:09:23.706Z,7.45
2022-12-08T12:12:17.181Z,7.32
2022-12-08T12:15:13.154Z,7.72
2022-12-08T12:17:46.669Z,7.32
2022-12-08T12:20:20.342Z,8.63
2022-12-08T12:22:56.655Z,8.45
2022-12-08T12:25:28.312Z,7.13
2022-12-08T12:28:03.388Z,6.65
2022-12-08T12:30:51.132Z,9.15
2022-12-08T12:33:21.620Z,7.25
2022-12-08T12:35:51.026Z,7.15
2022-12-08T12:38:48.863Z,8.90
2022-12-08T12:41:25.466Z,7.80
2022-12-08T12:44:37.979Z,6.93
2022-12-08T12:47:11.480Z,8.48
2022-12-08T12:50:10.630Z,6.53
2022-12-08T12:52:48.311Z,7.15
2022-12-08T12:55:56.759Z,7.55
2022-12-08T12:58:42.929Z,8.38
2022-12-08T13:01:56.640Z,6.22
2022-12-08T13:04:37.152Z,6.07
2022-12-08T13:07:06.808Z,7.45
2022-12-08T13:09:39.582Z,8.40
2022-12-08T13:12:13.915Z,6.90
2022-12-08T13:14:48.793Z,7.18
2022-12-08T13:17:25.742Z,7.22
2022-12-08T13:19:59.699Z,9.27
2022-12-08T13:22:59.494Z,8.52
2022-12-08T13:26:18.977Z,6.15
2022-12-08T13:29:18.180Z,4.13
2022-12-08T13:31:52.144Z,4.53
2022-12-08T13:34:35.991Z,5.10
2022-12-08T13:37:20.380Z,4.82
2022-12-08T13:39:53.427Z,4.53
2022-12-08T13:42:30.806Z,7.25
2022-12-08T13:45:39.732Z,4.63
2022-12-08T13:54:45.791Z,7.70
2022-12-08T13:59:34.172Z,6.43
2022-12-08T14:02:06.750Z,6.45
2022-12-08T14:05:09.340Z,6.50
2022-12-08T14:07:25.851Z,6.60
2022-12-08T14:09:56.402Z,6.50
2022-12-08T14:12:28.862Z,6.57
2022-12-08T14:15:04.127Z,8.68
2022-12-08T14:17:40.276Z,5.28
2022-12-08T14:20:25.519Z,5.68
2022-12-08T14:22:55.875Z,6.53
2022-12-08T14:25:27.360Z,9.95
2022-12-08T14:28:00.800Z,7.95
2022-12-08T14:30:33.191Z,7.60
2022-12-08T14:33:03.528Z,7.30
2022-12-08T14:35:34.473Z,8.25
2022-12-08T14:38:07.669Z,8.40
2022-12-08T14:40:39.792Z,8.30
2022-12-08T14:43:16.818Z,7.68
2022-12-08T14:45:53.523Z,6.72
2022-12-08T14:48:27.969Z,6.93
2022-12-08T14:51:05.596Z,8.50
2022-12-08T14:53:40.807Z,6.32
2022-12-08T14:56:20.202Z,7.28
2022-12-08T14:58:51.406Z,9.13
2022-12-08T15:01:24.878Z,6.05
2022-12-08T15:03:55.657Z,7.40
2022-12-08T15:06:24.955Z,7.32
2022-12-08T15:08:58.720Z,7.53
2022-12-08T15:11:37.305Z,7.80
2022-12-08T15:14:21.267Z,7.43
2022-12-08T15:16:50.453Z,6.75
2022-12-08T15:19:28.515Z,7.50
2022-12-08T15:22:00.344Z,9.77
2022-12-08T15:24:31.973Z,7.10
2022-12-08T15:27:02.702Z,6.57
2022-12-08T15:29:32.772Z,8.32
2022-12-08T15:32:03.105Z,8.13
2022-12-08T15:34:32.832Z,7.18
2022-12-08T15:37:02.022Z,7.22
2022-12-08T15:39:34.162Z,8.05
2022-12-08T15:42:07.686Z,6.90
2022-12-08T15:44:36.884Z,7.75
2022-12-08T15:47:06.947Z,7.53
2022-12-08T15:49:36.176Z,8.43
2022-12-08T15:52:11.579Z,9.45
2022-12-08T15:54:41.497Z,7.80
2022-12-08T15:57:43.703Z,8.50
2022-12-08T16:00:51.971Z,8.23
2022-12-08T16:07:04.774Z,7.68
2022-12-08T16:09:13.491Z,6.45
2022-12-08T16:12:09.637Z,8.82
2022-12-08T16:17:31.523Z,6.07
2022-12-08T16:20:01.531Z,8.88
2022-12-08T16:25:23.188Z,7.40
2022-12-08T16:28:36.986Z,7.47
2022-12-08T16:30:45.260Z,6.75
2022-12-08T16:33:14.896Z,7.50
2022-12-08T16:35:44.579Z,7.43
2022-12-08T16:38:16.790Z,8.27
2022-12-08T16:41:04.750Z,7.45
2022-12-08T16:43:34.628Z,9.68
2022-12-08T16:46:07.773Z,7.68
2022-12-08T16:48:37.020Z,9.55
2022-12-08T16:51:10.450Z,8.50
2022-12-08T16:53:39.871Z,7.97
2022-12-08T16:56:09.167Z,7.82
2022-12-08T16:58:38.275Z,8.30
2022-12-08T17:01:13.295Z,7.03
2022-12-08T17:03:51.784Z,8.38
2022-12-08T17:06:32.537Z,8.43
2022-12-08T17:09:02.178Z,7.93
2022-12-08T17:11:36.247Z,8.00
2022-12-08T17:14:09.432Z,8.00
2022-12-08T17:16:40.009Z,8.88
2022-12-08T17:19:09.713Z,9.15
2022-12-08T17:21:39.372Z,8.25
2022-12-08T17:24:08.798Z,8.15
2022-12-08T17:26:38.009Z,8.25
2022-12-08T17:29:07.296Z,9.05
2022-12-08T17:31:36.500Z,8.73
2022-12-08T17:34:10.476Z,7.35
2022-12-08T17:36:39.595Z,7.07
2022-12-08T17:39:14.883Z,7.22
2022-12-08T17:41:47.433Z,6.50
2022-12-08T17:44:18.226Z,8.05
2022-12-08T17:46:52.522Z,8.70
2022-12-08T17:49:25.917Z,6.80
2022-12-08T17:51:56.633Z,7.47
2022-12-08T17:54:26.684Z,8.93
2022-12-08T17:56:58.704Z,8.80
2022-12-08T17:59:29.409Z,7.20
2022-12-08T18:01:59.537Z,7.60
2022-12-08T18:04:30.363Z,8.45
2022-12-08T18:07:01.487Z,9.07
2022-12-08T18:09:33.746Z,8.30
2022-12-08T18:12:02.992Z,7.63
2022-12-08T18:14:32.171Z,8.05
2022-12-08T18:17:01.428Z,10.18
2022-12-08T18:19:31.994Z,8.05
2022-12-08T18:22:01.196Z,8.93
2022-12-08T18:24:30.298Z,8.00
2022-12-08T18:26:59.586Z,8.25
2022-12-08T18:29:29.818Z,9.23
2022-12-08T18:31:58.886Z,8.85
2022-12-08T18:34:28.036Z,11.10
2022-12-08T18:36:58.677Z,8.45
2022-12-08T18:39:29.525Z,8.18
2022-12-08T18:42:03.535Z,8.80
2022-12-08T18:44:33.566Z,10.30
2022-12-08T18:47:04.921Z,8.43
2022-12-08T18:49:34.877Z,9.30
2022-12-08T18:52:08.064Z,9.05
2022-12-08T18:57:31.006Z,9.73
2022-12-08T19:00:02.994Z,8.63
2022-12-08T19:02:33.550Z,8.70
2022-12-08T19:05:03.648Z,10.80
2022-12-08T19:07:35.845Z,9.52
2022-12-08T19:10:06.807Z,9.60
2022-12-08T19:12:39.326Z,10.80
2022-12-08T19:15:11.800Z,9.52
2022-12-08T19:17:41.755Z,9.55
2022-12-08T19:20:16.929Z,10.43
2022-12-08T19:22:48.986Z,10.60
2022-12-08T19:25:22.772Z,10.55
2022-12-08T19:27:53.985Z,10.50
2022-12-08T19:30:24.721Z,10.05
2022-12-08T19:32:55.179Z,8.43
2022-12-08T19:35:26.599Z,9.88
2022-12-08T19:37:57.833Z,8.57
2022-12-08T19:40:45.368Z,9.60
2022-12-08T19:43:35.693Z,8.98
2022-12-08T19:46:08.131Z,10.02
2022-12-08T19:48:38.403Z,8.18
2022-12-08T19:51:09.605Z,9.88
2022-12-08T19:53:47.352Z,9.18
2022-12-08T19:56:18.129Z,9.75
2022-12-08T19:58:48.160Z,8.75
2022-12-08T20:01:20.069Z,8.57
2022-12-08T20:03:50.424Z,11.63
2022-12-08T20:06:21.285Z,8.20
2022-12-08T20:08:54.432Z,9.48
2022-12-08T20:11:24.779Z,8.27
2022-12-08T20:13:55.368Z,10.38
2022-12-08T20:16:25.756Z,9.25
2022-12-08T20:18:55.825Z,8.93
2022-12-08T20:21:26.189Z,8.18
2022-12-08T20:23:58.139Z,9.52
2022-12-08T20:26:28.242Z,7.78
2022-12-08T20:28:59.610Z,7.30
2022-12-08T20:31:33.751Z,8.50
2022-12-08T20:34:04.145Z,10.02
2022-12-08T20:36:35.606Z,9.43
2022-12-08T20:39:07.426Z,8.55
2022-12-08T20:41:39.270Z,8.55
2022-12-08T20:44:10.732Z,7.40
2022-12-08T20:46:47.784Z,8.60
2022-12-08T20:49:19.513Z,7.28
2022-12-08T20:51:49.891Z,8.32
2022-12-08T20:54:21.517Z,8.35
2022-12-08T20:56:51.631Z,9.82
2022-12-08T20:59:21.969Z,8.02
2022-12-08T21:01:55.873Z,7.20
2022-12-08T21:04:26.416Z,7.72
2022-12-08T21:06:56.971Z,10.35
2022-12-08T21:09:31.487Z,8.20
2022-12-08T21:12:01.919Z,9.52
2022-12-08T21:14:32.076Z,7.30
2022-12-08T21:17:08.638Z,11.80
2022-12-08T21:19:42.433Z,7.43
2022-12-08T21:22:16.395Z,9.43
2022-12-08T21:24:49.089Z,10.23
2022-12-08T21:27:24.315Z,7.65
2022-12-08T21:30:03.211Z,9.48
2022-12-08T21:32:35.729Z,7.13
2022-12-08T21:35:09.676Z,7.43
2022-12-08T21:37:43.542Z,9.00
2022-12-08T21:40:22.928Z,8.65
2022-12-08T21:42:56.949Z,9.68
2022-12-08T21:45:30.520Z,9.57
2022-12-08T21:48:12.604Z,9.25
2022-12-08T21:50:45.405Z,13.52
2022-12-08T21:53:19.582Z,11.30
2022-12-08T21:56:04.985Z,8.77
2022-12-08T21:58:38.539Z,9.98
2022-12-08T22:01:17.394Z,9.85
2022-12-08T22:03:51.503Z,10.65
2022-12-08T22:06:30.102Z,9.50
2022-12-08T22:09:01.675Z,9.60
2022-12-08T22:11:36.375Z,8.23
2022-12-08T22:14:14.426Z,10.10
2022-12-08T22:16:47.976Z,10.35
2022-12-08T22:19:24.750Z,10.00
2022-12-08T22:21:56.739Z,10.38
2022-12-08T22:24:31.835Z,10.23
2022-12-08T22:27:09.288Z,9.40
2022-12-08T22:29:42.547Z,9.05
2022-12-08T22:32:14.032Z,9.77
2022-12-08T22:34:47.081Z,10.80
2022-12-08T22:37:22.057Z,9.57
2022-12-08T22:39:58.114Z,10.07
2022-12-08T22:42:36.166Z,8.00
2022-12-08T22:45:11.051Z,9.30
2022-12-08T22:47:47.946Z,9.98
2022-12-08T22:50:22.403Z,10.70
2022-12-08T22:52:56.708Z,11.77
2022-12-08T22:55:27.655Z,9.63
2022-12-08T22:58:05.374Z,8.48
2022-12-08T23:00:42.511Z,8.10
2022-12-08T23:03:18.330Z,9.25
2022-12-08T23:05:51.012Z,9.25
2022-12-08T23:08:28.334Z,7.80
2022-12-08T23:11:02.529Z,8.52
2022-12-08T23:13:45.839Z,12.05
2022-12-08T23:16:20.182Z,7.60
2022-12-08T23:18:53.290Z,9.10
2022-12-08T23:21:25.038Z,10.88
2022-12-08T23:23:59.191Z,9.60
2022-12-08T23:26:33.174Z,8.73
2022-12-08T23:29:07.911Z,8.52
2022-12-08T23:31:43.381Z,9.70
2022-12-08T23:34:18.394Z,10.90
2022-12-08T23:36:53.011Z,9.77
2022-12-08T23:40:16.634Z,10.65
2022-12-08T23:42:51.200Z,10.95
2022-12-08T23:45:28.145Z,12.63
2022-12-08T23:48:04.640Z,11.40
2022-12-08T23:50:45.204Z,10.45
2022-12-08T23:53:20.524Z,8.98
2022-12-08T23:56:05.802Z,9.30
2022-12-08T23:58:42.291Z,10.35
